Adaven, Nevada
Current Conditions -  °F | °C
As of 9:56 PM on Saturday 20 Dec 2014 (Local Time) from KTPH Reporting Station
Broken Clouds Broken Clouds  
Wind Chill: 32°   Ceiling: 11000
Heat Index: 32°   Visibility: 10mi
Dew Point: 29°   Wind: 3mph
Humidity: 88%   Direction: 350°N
Pressure: 30.2"   Gusts: NA
Location:  38.13°N, 115.6°W
Report Text: KTPH 210556Z AUTO 35003KT 10SM BKN110 00/M02 A3020 RMK AO2 SLP239 60000 T00001017 10056 20000 53010
Loading
Personal Weather Stations






























Interactive Weather Map New forecast layout! Learn more

10-Day Weather Forecast

Advertisements
Track Severe Weather on mobile